sensor_id;sensor_type;location;lat;lon;timestamp;P1;durP1;ratioP1;P2;durP2;ratioP2
9675;SDS011;4876;42.656;23.292;2023-03-01T00:01:33;5.70;;;3.77;;
9675;SDS011;4876;42.656;23.292;2023-03-01T00:04:00;6.40;;;4.03;;
9675;SDS011;4876;42.656;23.292;2023-03-01T00:06:27;7.77;;;5.30;;
9675;SDS011;4876;42.656;23.292;2023-03-01T00:08:54;6.93;;;4.73;;
9675;SDS011;4876;42.656;23.292;2023-03-01T00:11:23;5.87;;;4.20;;
9675;SDS011;4876;42.656;23.292;2023-03-01T00:13:52;5.50;;;4.57;;
9675;SDS011;4876;42.656;23.292;2023-03-01T00:16:21;3.87;;;3.13;;
9675;SDS011;4876;42.656;23.292;2023-03-01T00:18:50;4.67;;;4.20;;
9675;SDS011;4876;42.656;23.292;2023-03-01T00:21:16;5.13;;;3.63;;
9675;SDS011;4876;42.656;23.292;2023-03-01T00:23:45;4.87;;;4.03;;
9675;SDS011;4876;42.656;23.292;2023-03-01T00:26:14;4.57;;;4.07;;
9675;SDS011;4876;42.656;23.292;2023-03-01T00:28:42;5.83;;;4.37;;
9675;SDS011;4876;42.656;23.292;2023-03-01T00:31:10;4.83;;;3.90;;
9675;SDS011;4876;42.656;23.292;2023-03-01T00:33:39;4.73;;;3.70;;
9675;SDS011;4876;42.656;23.292;2023-03-01T00:36:06;5.40;;;4.00;;
9675;SDS011;4876;42.656;23.292;2023-03-01T00:38:34;5.07;;;4.07;;
9675;SDS011;4876;42.656;23.292;2023-03-01T00:41:05;5.60;;;3.90;;
9675;SDS011;4876;42.656;23.292;2023-03-01T00:43:33;3.93;;;3.07;;
9675;SDS011;4876;42.656;23.292;2023-03-01T00:46:03;3.73;;;2.93;;
9675;SDS011;4876;42.656;23.292;2023-03-01T00:48:31;4.70;;;3.47;;
9675;SDS011;4876;42.656;23.292;2023-03-01T00:51:03;4.00;;;3.17;;
9675;SDS011;4876;42.656;23.292;2023-03-01T00:53:31;3.73;;;2.57;;
9675;SDS011;4876;42.656;23.292;2023-03-01T00:55:58;4.33;;;3.73;;
9675;SDS011;4876;42.656;23.292;2023-03-01T00:58:25;5.47;;;3.77;;
9675;SDS011;4876;42.656;23.292;2023-03-01T01:00:52;5.10;;;4.00;;
9675;SDS011;4876;42.656;23.292;2023-03-01T01:03:20;3.90;;;3.27;;
9675;SDS011;4876;42.656;23.292;2023-03-01T01:05:49;3.27;;;2.73;;
9675;SDS011;4876;42.656;23.292;2023-03-01T01:08:16;3.70;;;3.40;;
9675;SDS011;4876;42.656;23.292;2023-03-01T01:10:43;4.17;;;3.77;;
9675;SDS011;4876;42.656;23.292;2023-03-01T01:13:10;3.60;;;3.30;;
9675;SDS011;4876;42.656;23.292;2023-03-01T01:15:37;3.20;;;2.53;;
9675;SDS011;4876;42.656;23.292;2023-03-01T01:18:04;2.63;;;2.37;;
9675;SDS011;4876;42.656;23.292;2023-03-01T01:20:34;3.47;;;2.80;;
9675;SDS011;4876;42.656;23.292;2023-03-01T01:23:02;2.97;;;2.67;;
9675;SDS011;4876;42.656;23.292;2023-03-01T01:25:33;3.33;;;2.60;;
9675;SDS011;4876;42.656;23.292;2023-03-01T01:28:01;3.40;;;2.80;;
9675;SDS011;4876;42.656;23.292;2023-03-01T01:30:27;2.00;;;1.83;;
9675;SDS011;4876;42.656;23.292;2023-03-01T01:32:54;4.87;;;2.63;;
9675;SDS011;4876;42.656;23.292;2023-03-01T01:35:21;2.87;;;2.30;;
9675;SDS011;4876;42.656;23.292;2023-03-01T01:37:49;2.30;;;2.10;;
9675;SDS011;4876;42.656;23.292;2023-03-01T01:40:16;3.37;;;1.73;;
9675;SDS011;4876;42.656;23.292;2023-03-01T01:42:43;2.27;;;2.07;;
9675;SDS011;4876;42.656;23.292;2023-03-01T01:45:30;2.23;;;2.03;;
9675;SDS011;4876;42.656;23.292;2023-03-01T01:47:59;2.30;;;2.10;;
9675;SDS011;4876;42.656;23.292;2023-03-01T01:50:30;2.03;;;1.73;;
9675;SDS011;4876;42.656;23.292;2023-03-01T01:53:05;1.50;;;1.40;;
9675;SDS011;4876;42.656;23.292;2023-03-01T01:55:35;1.70;;;1.60;;
9675;SDS011;4876;42.656;23.292;2023-03-01T01:58:06;1.63;;;1.53;;
9675;SDS011;4876;42.656;23.292;2023-03-01T02:00:34;1.93;;;1.80;;
9675;SDS011;4876;42.656;23.292;2023-03-01T02:03:02;1.97;;;1.57;;
9675;SDS011;4876;42.656;23.292;2023-03-01T02:05:33;2.93;;;2.20;;
9675;SDS011;4876;42.656;23.292;2023-03-01T02:08:06;2.00;;;1.80;;
9675;SDS011;4876;42.656;23.292;2023-03-01T02:10:34;2.43;;;2.03;;
9675;SDS011;4876;42.656;23.292;2023-03-01T02:13:01;2.60;;;2.40;;
9675;SDS011;4876;42.656;23.292;2023-03-01T02:15:31;2.40;;;2.20;;
9675;SDS011;4876;42.656;23.292;2023-03-01T02:17:59;1.83;;;1.73;;
9675;SDS011;4876;42.656;23.292;2023-03-01T02:20:29;1.93;;;1.73;;
9675;SDS011;4876;42.656;23.292;2023-03-01T02:22:59;2.17;;;1.97;;
9675;SDS011;4876;42.656;23.292;2023-03-01T02:25:29;2.77;;;2.03;;
9675;SDS011;4876;42.656;23.292;2023-03-01T02:28:03;1.90;;;1.70;;
9675;SDS011;4876;42.656;23.292;2023-03-01T02:30:36;1.73;;;1.47;;
9675;SDS011;4876;42.656;23.292;2023-03-01T02:33:23;1.63;;;1.53;;
9675;SDS011;4876;42.656;23.292;2023-03-01T02:35:50;2.27;;;2.07;;
9675;SDS011;4876;42.656;23.292;2023-03-01T02:38:19;1.77;;;1.67;;
9675;SDS011;4876;42.656;23.292;2023-03-01T02:40:47;2.47;;;2.10;;
9675;SDS011;4876;42.656;23.292;2023-03-01T02:43:16;1.87;;;1.77;;
9675;SDS011;4876;42.656;23.292;2023-03-01T02:45:49;1.73;;;1.63;;
9675;SDS011;4876;42.656;23.292;2023-03-01T02:48:16;1.93;;;1.67;;
9675;SDS011;4876;42.656;23.292;2023-03-01T02:50:46;3.10;;;2.10;;
9675;SDS011;4876;42.656;23.292;2023-03-01T02:53:32;5.63;;;1.70;;
9675;SDS011;4876;42.656;23.292;2023-03-01T02:56:05;2.83;;;2.47;;
9675;SDS011;4876;42.656;23.292;2023-03-01T02:58:38;3.17;;;2.77;;
9675;SDS011;4876;42.656;23.292;2023-03-01T03:01:11;2.60;;;2.40;;
9675;SDS011;4876;42.656;23.292;2023-03-01T03:03:40;3.27;;;2.60;;
9675;SDS011;4876;42.656;23.292;2023-03-01T03:06:07;5.73;;;4.83;;
9675;SDS011;4876;42.656;23.292;2023-03-01T03:08:34;3.33;;;2.87;;
9675;SDS011;4876;42.656;23.292;2023-03-01T03:11:01;2.60;;;2.40;;
9675;SDS011;4876;42.656;23.292;2023-03-01T03:13:28;3.97;;;3.37;;
9675;SDS011;4876;42.656;23.292;2023-03-01T03:15:55;3.10;;;2.80;;
9675;SDS011;4876;42.656;23.292;2023-03-01T03:18:24;4.07;;;3.27;;
9675;SDS011;4876;42.656;23.292;2023-03-01T03:20:51;4.77;;;4.33;;
9675;SDS011;4876;42.656;23.292;2023-03-01T03:23:19;5.20;;;4.37;;
9675;SDS011;4876;42.656;23.292;2023-03-01T03:25:47;5.93;;;5.00;;
9675;SDS011;4876;42.656;23.292;2023-03-01T03:28:15;4.47;;;3.63;;
9675;SDS011;4876;42.656;23.292;2023-03-01T03:30:42;5.70;;;5.10;;
9675;SDS011;4876;42.656;23.292;2023-03-01T03:33:09;11.17;;;7.27;;
9675;SDS011;4876;42.656;23.292;2023-03-01T03:35:39;5.50;;;4.43;;
9675;SDS011;4876;42.656;23.292;2023-03-01T03:38:08;6.13;;;5.30;;
9675;SDS011;4876;42.656;23.292;2023-03-01T03:40:41;6.33;;;5.67;;
9675;SDS011;4876;42.656;23.292;2023-03-01T03:43:12;7.73;;;6.83;;
9675;SDS011;4876;42.656;23.292;2023-03-01T03:45:41;6.97;;;5.83;;
9675;SDS011;4876;42.656;23.292;2023-03-01T03:48:09;7.87;;;6.73;;
9675;SDS011;4876;42.656;23.292;2023-03-01T03:50:36;5.83;;;5.23;;
9675;SDS011;4876;42.656;23.292;2023-03-01T03:53:06;8.00;;;6.90;;
9675;SDS011;4876;42.656;23.292;2023-03-01T03:55:34;7.60;;;6.03;;
9675;SDS011;4876;42.656;23.292;2023-03-01T03:58:05;7.77;;;6.43;;
9675;SDS011;4876;42.656;23.292;2023-03-01T04:00:33;7.17;;;5.03;;
9675;SDS011;4876;42.656;23.292;2023-03-01T04:03:01;6.37;;;4.90;;
9675;SDS011;4876;42.656;23.292;2023-03-01T04:05:28;4.43;;;3.87;;
9675;SDS011;4876;42.656;23.292;2023-03-01T04:07:57;4.57;;;4.10;;
9675;SDS011;4876;42.656;23.292;2023-03-01T04:10:33;4.67;;;3.87;;
9675;SDS011;4876;42.656;23.292;2023-03-01T04:13:02;5.43;;;4.43;;
9675;SDS011;4876;42.656;23.292;2023-03-01T04:15:29;5.13;;;3.83;;
9675;SDS011;4876;42.656;23.292;2023-03-01T04:17:57;4.17;;;3.77;;
9675;SDS011;4876;42.656;23.292;2023-03-01T04:20:25;4.77;;;3.97;;
9675;SDS011;4876;42.656;23.292;2023-03-01T04:22:58;6.40;;;4.43;;
9675;SDS011;4876;42.656;23.292;2023-03-01T04:25:35;4.73;;;4.07;;
9675;SDS011;4876;42.656;23.292;2023-03-01T04:28:03;5.23;;;4.67;;
9675;SDS011;4876;42.656;23.292;2023-03-01T04:30:30;3.90;;;3.50;;
9675;SDS011;4876;42.656;23.292;2023-03-01T04:33:01;4.30;;;3.90;;
9675;SDS011;4876;42.656;23.292;2023-03-01T04:35:29;4.20;;;2.80;;
9675;SDS011;4876;42.656;23.292;2023-03-01T04:37:58;5.90;;;4.10;;
9675;SDS011;4876;42.656;23.292;2023-03-01T04:40:24;4.00;;;3.60;;
9675;SDS011;4876;42.656;23.292;2023-03-01T04:42:51;5.23;;;4.23;;
9675;SDS011;4876;42.656;23.292;2023-03-01T04:45:18;5.87;;;4.60;;
9675;SDS011;4876;42.656;23.292;2023-03-01T04:47:45;4.90;;;3.60;;
9675;SDS011;4876;42.656;23.292;2023-03-01T04:50:13;5.70;;;3.80;;
9675;SDS011;4876;42.656;23.292;2023-03-01T04:52:42;6.30;;;5.70;;
9675;SDS011;4876;42.656;23.292;2023-03-01T04:55:10;6.77;;;4.93;;
9675;SDS011;4876;42.656;23.292;2023-03-01T04:57:37;4.90;;;4.28;;
9675;SDS011;4876;42.656;23.292;2023-03-01T05:00:05;4.30;;;3.27;;
9675;SDS011;4876;42.656;23.292;2023-03-01T05:02:45;4.20;;;3.77;;
9675;SDS011;4876;42.656;23.292;2023-03-01T05:05:19;4.93;;;4.40;;
9675;SDS011;4876;42.656;23.292;2023-03-01T05:07:51;6.57;;;3.23;;
9675;SDS011;4876;42.656;23.292;2023-03-01T05:10:20;5.83;;;4.67;;
9675;SDS011;4876;42.656;23.292;2023-03-01T05:12:47;5.27;;;3.60;;
9675;SDS011;4876;42.656;23.292;2023-03-01T05:15:14;4.80;;;3.63;;
9675;SDS011;4876;42.656;23.292;2023-03-01T05:17:41;5.17;;;3.50;;
9675;SDS011;4876;42.656;23.292;2023-03-01T05:20:08;5.90;;;5.30;;
9675;SDS011;4876;42.656;23.292;2023-03-01T05:22:36;5.07;;;4.33;;
9675;SDS011;4876;42.656;23.292;2023-03-01T05:25:03;6.07;;;5.00;;
9675;SDS011;4876;42.656;23.292;2023-03-01T05:27:33;6.63;;;5.30;;
9675;SDS011;4876;42.656;23.292;2023-03-01T05:30:00;5.17;;;4.63;;
9675;SDS011;4876;42.656;23.292;2023-03-01T05:32:39;5.83;;;4.70;;
9675;SDS011;4876;42.656;23.292;2023-03-01T05:35:08;5.50;;;4.93;;
9675;SDS011;4876;42.656;23.292;2023-03-01T05:37:35;4.93;;;3.90;;
9675;SDS011;4876;42.656;23.292;2023-03-01T05:40:02;4.80;;;4.23;;
9675;SDS011;4876;42.656;23.292;2023-03-01T05:42:30;4.23;;;3.67;;
9675;SDS011;4876;42.656;23.292;2023-03-01T05:44:58;3.53;;;2.97;;
9675;SDS011;4876;42.656;23.292;2023-03-01T05:47:25;3.70;;;3.37;;
9675;SDS011;4876;42.656;23.292;2023-03-01T05:49:51;3.17;;;2.53;;
9675;SDS011;4876;42.656;23.292;2023-03-01T05:52:18;2.70;;;2.50;;
9675;SDS011;4876;42.656;23.292;2023-03-01T05:54:45;3.97;;;3.03;;
9675;SDS011;4876;42.656;23.292;2023-03-01T05:57:12;2.70;;;2.50;;
9675;SDS011;4876;42.656;23.292;2023-03-01T05:59:38;2.50;;;2.20;;
9675;SDS011;4876;42.656;23.292;2023-03-01T06:02:06;4.77;;;2.93;;
9675;SDS011;4876;42.656;23.292;2023-03-01T06:04:33;6.43;;;3.63;;
9675;SDS011;4876;42.656;23.292;2023-03-01T06:07:00;4.17;;;3.10;;
9675;SDS011;4876;42.656;23.292;2023-03-01T06:09:27;4.40;;;2.57;;
9675;SDS011;4876;42.656;23.292;2023-03-01T06:11:55;4.80;;;3.10;;
9675;SDS011;4876;42.656;23.292;2023-03-01T06:14:39;5.50;;;3.43;;
9675;SDS011;4876;42.656;23.292;2023-03-01T06:17:07;3.53;;;3.20;;
9675;SDS011;4876;42.656;23.292;2023-03-01T06:19:34;3.23;;;2.93;;
9675;SDS011;4876;42.656;23.292;2023-03-01T06:22:01;4.00;;;3.47;;
9675;SDS011;4876;42.656;23.292;2023-03-01T06:24:28;3.37;;;2.73;;
9675;SDS011;4876;42.656;23.292;2023-03-01T06:26:55;3.87;;;2.70;;
9675;SDS011;4876;42.656;23.292;2023-03-01T06:29:21;3.87;;;2.80;;
9675;SDS011;4876;42.656;23.292;2023-03-01T06:31:48;4.07;;;3.00;;
9675;SDS011;4876;42.656;23.292;2023-03-01T06:34:16;3.00;;;2.70;;
9675;SDS011;4876;42.656;23.292;2023-03-01T06:36:44;3.00;;;2.60;;
9675;SDS011;4876;42.656;23.292;2023-03-01T06:39:10;3.67;;;2.23;;
9675;SDS011;4876;42.656;23.292;2023-03-01T06:41:37;3.20;;;2.70;;
9675;SDS011;4876;42.656;23.292;2023-03-01T06:44:04;3.50;;;2.80;;
9675;SDS011;4876;42.656;23.292;2023-03-01T06:46:31;5.67;;;2.60;;
9675;SDS011;4876;42.656;23.292;2023-03-01T06:48:58;4.63;;;3.43;;
9675;SDS011;4876;42.656;23.292;2023-03-01T06:51:26;3.13;;;2.83;;
9675;SDS011;4876;42.656;23.292;2023-03-01T06:53:53;3.77;;;3.10;;
9675;SDS011;4876;42.656;23.292;2023-03-01T06:56:20;4.17;;;3.47;;
9675;SDS011;4876;42.656;23.292;2023-03-01T06:58:46;7.00;;;3.50;;
9675;SDS011;4876;42.656;23.292;2023-03-01T07:01:13;4.90;;;3.23;;
9675;SDS011;4876;42.656;23.292;2023-03-01T07:03:40;3.67;;;2.80;;
9675;SDS011;4876;42.656;23.292;2023-03-01T07:06:09;2.97;;;2.63;;
9675;SDS011;4876;42.656;23.292;2023-03-01T07:08:37;7.97;;;2.90;;
9675;SDS011;4876;42.656;23.292;2023-03-01T07:11:04;4.30;;;2.67;;
9675;SDS011;4876;42.656;23.292;2023-03-01T07:13:31;2.90;;;2.03;;
9675;SDS011;4876;42.656;23.292;2023-03-01T07:15:58;2.57;;;2.33;;
9675;SDS011;4876;42.656;23.292;2023-03-01T07:18:24;3.67;;;2.87;;
9675;SDS011;4876;42.656;23.292;2023-03-01T07:20:51;5.40;;;3.27;;
9675;SDS011;4876;42.656;23.292;2023-03-01T07:23:18;4.03;;;2.97;;
9675;SDS011;4876;42.656;23.292;2023-03-01T07:25:51;3.17;;;2.67;;
9675;SDS011;4876;42.656;23.292;2023-03-01T07:28:19;3.63;;;2.70;;
9675;SDS011;4876;42.656;23.292;2023-03-01T07:30:46;4.50;;;3.00;;
9675;SDS011;4876;42.656;23.292;2023-03-01T07:33:13;4.40;;;2.80;;
9675;SDS011;4876;42.656;23.292;2023-03-01T07:35:39;3.03;;;2.70;;
9675;SDS011;4876;42.656;23.292;2023-03-01T07:38:06;4.17;;;2.77;;
9675;SDS011;4876;42.656;23.292;2023-03-01T07:40:33;3.03;;;2.43;;
9675;SDS011;4876;42.656;23.292;2023-03-01T07:43:01;3.67;;;3.37;;
9675;SDS011;4876;42.656;23.292;2023-03-01T07:45:28;11.07;;;3.93;;
9675;SDS011;4876;42.656;23.292;2023-03-01T07:47:55;4.37;;;3.37;;
9675;SDS011;4876;42.656;23.292;2023-03-01T07:50:22;2.90;;;2.17;;
9675;SDS011;4876;42.656;23.292;2023-03-01T07:52:49;4.33;;;1.90;;
9675;SDS011;4876;42.656;23.292;2023-03-01T07:55:16;2.27;;;2.07;;
9675;SDS011;4876;42.656;23.292;2023-03-01T07:57:43;2.73;;;2.00;;
9675;SDS011;4876;42.656;23.292;2023-03-01T08:00:11;2.73;;;2.17;;
9675;SDS011;4876;42.656;23.292;2023-03-01T08:02:39;3.50;;;2.93;;
9675;SDS011;4876;42.656;23.292;2023-03-01T08:05:07;2.53;;;2.27;;
9675;SDS011;4876;42.656;23.292;2023-03-01T08:07:34;22.07;;;3.27;;
9675;SDS011;4876;42.656;23.292;2023-03-01T08:10:01;6.27;;;3.13;;
9675;SDS011;4876;42.656;23.292;2023-03-01T08:12:28;5.97;;;2.40;;
9675;SDS011;4876;42.656;23.292;2023-03-01T08:14:55;7.90;;;2.77;;
9675;SDS011;4876;42.656;23.292;2023-03-01T08:17:23;2.83;;;2.10;;
9675;SDS011;4876;42.656;23.292;2023-03-01T08:19:50;2.50;;;2.13;;
9675;SDS011;4876;42.656;23.292;2023-03-01T08:22:17;7.27;;;2.30;;
9675;SDS011;4876;42.656;23.292;2023-03-01T08:24:44;4.00;;;2.43;;
9675;SDS011;4876;42.656;23.292;2023-03-01T08:27:10;5.40;;;3.10;;
9675;SDS011;4876;42.656;23.292;2023-03-01T08:29:38;3.10;;;2.47;;
9675;SDS011;4876;42.656;23.292;2023-03-01T08:32:05;2.93;;;2.63;;
9675;SDS011;4876;42.656;23.292;2023-03-01T08:34:33;3.57;;;2.37;;
9675;SDS011;4876;42.656;23.292;2023-03-01T08:37:01;2.83;;;2.40;;
9675;SDS011;4876;42.656;23.292;2023-03-01T08:39:27;1.77;;;1.67;;
9675;SDS011;4876;42.656;23.292;2023-03-01T08:41:54;5.23;;;3.87;;
9675;SDS011;4876;42.656;23.292;2023-03-01T08:44:21;4.57;;;3.77;;
9675;SDS011;4876;42.656;23.292;2023-03-01T08:46:48;3.30;;;3.00;;
9675;SDS011;4876;42.656;23.292;2023-03-01T08:49:17;3.90;;;2.03;;
9675;SDS011;4876;42.656;23.292;2023-03-01T08:51:46;3.50;;;2.70;;
9675;SDS011;4876;42.656;23.292;2023-03-01T08:54:14;3.77;;;3.00;;
9675;SDS011;4876;42.656;23.292;2023-03-01T08:56:43;1.73;;;1.50;;
9675;SDS011;4876;42.656;23.292;2023-03-01T08:59:10;2.97;;;2.60;;
9675;SDS011;4876;42.656;23.292;2023-03-01T09:01:37;1.70;;;1.60;;
9675;SDS011;4876;42.656;23.292;2023-03-01T09:04:05;2.87;;;2.07;;
9675;SDS011;4876;42.656;23.292;2023-03-01T09:06:32;3.13;;;2.83;;
9675;SDS011;4876;42.656;23.292;2023-03-01T09:09:02;2.33;;;2.13;;
9675;SDS011;4876;42.656;23.292;2023-03-01T09:11:30;3.00;;;2.50;;
9675;SDS011;4876;42.656;23.292;2023-03-01T09:13:58;5.17;;;3.33;;
9675;SDS011;4876;42.656;23.292;2023-03-01T09:16:25;2.50;;;2.00;;
9675;SDS011;4876;42.656;23.292;2023-03-01T09:18:52;3.97;;;2.47;;
9675;SDS011;4876;42.656;23.292;2023-03-01T09:21:20;3.47;;;2.30;;
9675;SDS011;4876;42.656;23.292;2023-03-01T09:23:49;1.87;;;1.77;;
9675;SDS011;4876;42.656;23.292;2023-03-01T09:26:18;3.20;;;2.70;;
9675;SDS011;4876;42.656;23.292;2023-03-01T09:28:47;2.53;;;2.33;;
9675;SDS011;4876;42.656;23.292;2023-03-01T09:31:14;3.67;;;2.83;;
9675;SDS011;4876;42.656;23.292;2023-03-01T09:33:44;2.40;;;2.17;;
9675;SDS011;4876;42.656;23.292;2023-03-01T09:36:13;8.37;;;2.90;;
9675;SDS011;4876;42.656;23.292;2023-03-01T09:38:41;3.73;;;2.50;;
9675;SDS011;4876;42.656;23.292;2023-03-01T09:41:11;3.53;;;2.73;;
9675;SDS011;4876;42.656;23.292;2023-03-01T09:44:02;2.33;;;2.13;;
9675;SDS011;4876;42.656;23.292;2023-03-01T09:46:36;4.20;;;1.90;;
9675;SDS011;4876;42.656;23.292;2023-03-01T09:49:09;3.93;;;2.30;;
9675;SDS011;4876;42.656;23.292;2023-03-01T09:51:42;3.30;;;2.30;;
9675;SDS011;4876;42.656;23.292;2023-03-01T09:54:09;5.00;;;2.63;;
9675;SDS011;4876;42.656;23.292;2023-03-01T09:56:40;4.37;;;2.13;;
9675;SDS011;4876;42.656;23.292;2023-03-01T09:59:14;3.20;;;2.73;;
9675;SDS011;4876;42.656;23.292;2023-03-01T10:01:48;3.53;;;2.90;;
9675;SDS011;4876;42.656;23.292;2023-03-01T10:04:28;4.20;;;3.20;;
9675;SDS011;4876;42.656;23.292;2023-03-01T10:07:15;5.50;;;2.90;;
9675;SDS011;4876;42.656;23.292;2023-03-01T10:09:48;3.50;;;2.50;;
9675;SDS011;4876;42.656;23.292;2023-03-01T10:12:18;5.43;;;3.10;;
9675;SDS011;4876;42.656;23.292;2023-03-01T10:14:50;5.40;;;3.40;;
9675;SDS011;4876;42.656;23.292;2023-03-01T10:17:28;5.33;;;2.30;;
9675;SDS011;4876;42.656;23.292;2023-03-01T10:20:09;2.37;;;2.13;;
9675;SDS011;4876;42.656;23.292;2023-03-01T10:22:44;7.40;;;1.90;;
9675;SDS011;4876;42.656;23.292;2023-03-01T10:25:15;3.83;;;3.13;;
9675;SDS011;4876;42.656;23.292;2023-03-01T10:27:51;3.07;;;2.53;;
9675;SDS011;4876;42.656;23.292;2023-03-01T10:30:20;5.27;;;3.67;;
9675;SDS011;4876;42.656;23.292;2023-03-01T10:32:52;2.93;;;2.30;;
9675;SDS011;4876;42.656;23.292;2023-03-01T10:35:21;5.50;;;2.87;;
9675;SDS011;4876;42.656;23.292;2023-03-01T10:37:56;5.43;;;3.23;;
9675;SDS011;4876;42.656;23.292;2023-03-01T10:40:24;4.27;;;2.37;;
9675;SDS011;4876;42.656;23.292;2023-03-01T10:42:53;8.43;;;2.77;;
9675;SDS011;4876;42.656;23.292;2023-03-01T10:45:27;3.87;;;2.43;;
9675;SDS011;4876;42.656;23.292;2023-03-01T10:48:02;2.87;;;2.00;;
9675;SDS011;4876;42.656;23.292;2023-03-01T10:50:31;2.07;;;1.80;;
9675;SDS011;4876;42.656;23.292;2023-03-01T10:52:58;4.10;;;2.03;;
9675;SDS011;4876;42.656;23.292;2023-03-01T10:55:28;3.27;;;2.13;;
9675;SDS011;4876;42.656;23.292;2023-03-01T10:58:07;3.33;;;2.60;;
9675;SDS011;4876;42.656;23.292;2023-03-01T11:00:48;3.70;;;2.43;;
9675;SDS011;4876;42.656;23.292;2023-03-01T11:03:19;6.17;;;3.00;;
9675;SDS011;4876;42.656;23.292;2023-03-01T11:05:53;7.27;;;2.83;;
9675;SDS011;4876;42.656;23.292;2023-03-01T11:11:16;3.17;;;2.40;;
9675;SDS011;4876;42.656;23.292;2023-03-01T11:13:54;3.57;;;2.50;;
9675;SDS011;4876;42.656;23.292;2023-03-01T11:16:24;2.93;;;2.43;;
9675;SDS011;4876;42.656;23.292;2023-03-01T11:18:56;5.83;;;3.23;;
9675;SDS011;4876;42.656;23.292;2023-03-01T11:21:25;3.97;;;2.70;;
9675;SDS011;4876;42.656;23.292;2023-03-01T11:23:55;3.60;;;2.77;;
9675;SDS011;4876;42.656;23.292;2023-03-01T11:26:26;3.70;;;2.43;;
9675;SDS011;4876;42.656;23.292;2023-03-01T11:28:56;3.33;;;2.83;;
9675;SDS011;4876;42.656;23.292;2023-03-01T11:31:28;5.20;;;2.97;;
9675;SDS011;4876;42.656;23.292;2023-03-01T11:33:57;3.93;;;2.83;;
9675;SDS011;4876;42.656;23.292;2023-03-01T11:36:30;2.27;;;1.90;;
9675;SDS011;4876;42.656;23.292;2023-03-01T11:39:05;2.70;;;2.50;;
9675;SDS011;4876;42.656;23.292;2023-03-01T11:41:43;3.30;;;3.00;;
9675;SDS011;4876;42.656;23.292;2023-03-01T11:44:20;4.93;;;3.17;;
9675;SDS011;4876;42.656;23.292;2023-03-01T11:52:48;6.17;;;3.13;;
9675;SDS011;4876;42.656;23.292;2023-03-01T11:55:29;5.67;;;2.87;;
9675;SDS011;4876;42.656;23.292;2023-03-01T11:58:10;2.97;;;2.47;;
9675;SDS011;4876;42.656;23.292;2023-03-01T12:01:02;4.10;;;2.63;;
9675;SDS011;4876;42.656;23.292;2023-03-01T12:03:45;7.50;;;3.03;;
9675;SDS011;4876;42.656;23.292;2023-03-01T12:06:33;5.90;;;3.70;;
9675;SDS011;4876;42.656;23.292;2023-03-01T12:09:22;5.00;;;3.20;;
9675;SDS011;4876;42.656;23.292;2023-03-01T12:14:58;4.03;;;2.63;;
9675;SDS011;4876;42.656;23.292;2023-03-01T12:17:54;4.83;;;2.50;;
9675;SDS011;4876;42.656;23.292;2023-03-01T12:20:44;4.20;;;3.00;;
9675;SDS011;4876;42.656;23.292;2023-03-01T12:23:34;4.67;;;3.30;;
9675;SDS011;4876;42.656;23.292;2023-03-01T12:26:20;3.80;;;2.43;;
9675;SDS011;4876;42.656;23.292;2023-03-01T12:31:57;2.57;;;2.30;;
9675;SDS011;4876;42.656;23.292;2023-03-01T12:34:35;4.07;;;2.97;;
9675;SDS011;4876;42.656;23.292;2023-03-01T12:37:18;3.57;;;2.33;;
9675;SDS011;4876;42.656;23.292;2023-03-01T12:39:56;2.50;;;2.17;;
9675;SDS011;4876;42.656;23.292;2023-03-01T12:42:44;4.57;;;3.23;;
9675;SDS011;4876;42.656;23.292;2023-03-01T12:45:34;3.30;;;2.47;;
9675;SDS011;4876;42.656;23.292;2023-03-01T12:48:15;3.27;;;2.97;;
9675;SDS011;4876;42.656;23.292;2023-03-01T12:50:52;3.97;;;2.73;;
9675;SDS011;4876;42.656;23.292;2023-03-01T12:53:22;4.33;;;3.30;;
9675;SDS011;4876;42.656;23.292;2023-03-01T12:55:51;3.90;;;3.20;;
9675;SDS011;4876;42.656;23.292;2023-03-01T12:58:24;2.73;;;2.43;;
9675;SDS011;4876;42.656;23.292;2023-03-01T13:01:00;2.63;;;2.30;;
9675;SDS011;4876;42.656;23.292;2023-03-01T13:03:53;3.67;;;2.37;;
9675;SDS011;4876;42.656;23.292;2023-03-01T13:06:32;2.90;;;2.60;;
9675;SDS011;4876;42.656;23.292;2023-03-01T13:09:08;3.90;;;3.20;;
9675;SDS011;4876;42.656;23.292;2023-03-01T13:11:45;5.13;;;2.57;;
9675;SDS011;4876;42.656;23.292;2023-03-01T13:22:42;2.97;;;2.60;;
9675;SDS011;4876;42.656;23.292;2023-03-01T13:25:13;2.97;;;2.67;;
9675;SDS011;4876;42.656;23.292;2023-03-01T13:27:42;3.57;;;2.70;;
9675;SDS011;4876;42.656;23.292;2023-03-01T13:36:07;4.73;;;2.63;;
9675;SDS011;4876;42.656;23.292;2023-03-01T13:38:46;4.53;;;2.60;;
9675;SDS011;4876;42.656;23.292;2023-03-01T13:41:15;3.47;;;2.80;;
9675;SDS011;4876;42.656;23.292;2023-03-01T13:43:44;2.17;;;1.97;;
9675;SDS011;4876;42.656;23.292;2023-03-01T13:46:15;5.10;;;2.97;;
9675;SDS011;4876;42.656;23.292;2023-03-01T13:48:47;2.67;;;2.10;;
9675;SDS011;4876;42.656;23.292;2023-03-01T13:51:20;3.93;;;2.17;;
9675;SDS011;4876;42.656;23.292;2023-03-01T13:53:51;2.87;;;2.67;;
9675;SDS011;4876;42.656;23.292;2023-03-01T13:56:21;3.50;;;2.60;;
9675;SDS011;4876;42.656;23.292;2023-03-01T13:58:52;2.80;;;2.47;;
9675;SDS011;4876;42.656;23.292;2023-03-01T14:01:22;2.57;;;2.37;;
9675;SDS011;4876;42.656;23.292;2023-03-01T14:03:52;3.47;;;3.00;;
9675;SDS011;4876;42.656;23.292;2023-03-01T14:06:20;2.83;;;2.43;;
9675;SDS011;4876;42.656;23.292;2023-03-01T14:08:49;4.70;;;3.10;;
9675;SDS011;4876;42.656;23.292;2023-03-01T14:11:31;4.37;;;3.00;;
9675;SDS011;4876;42.656;23.292;2023-03-01T14:20:11;6.17;;;3.60;;
9675;SDS011;4876;42.656;23.292;2023-03-01T14:22:43;4.77;;;3.77;;
9675;SDS011;4876;42.656;23.292;2023-03-01T14:25:19;3.43;;;2.43;;
9675;SDS011;4876;42.656;23.292;2023-03-01T14:27:54;6.80;;;3.70;;
9675;SDS011;4876;42.656;23.292;2023-03-01T14:30:22;4.50;;;3.83;;
9675;SDS011;4876;42.656;23.292;2023-03-01T14:32:52;4.20;;;3.10;;
9675;SDS011;4876;42.656;23.292;2023-03-01T14:35:21;3.60;;;2.70;;
9675;SDS011;4876;42.656;23.292;2023-03-01T14:37:49;3.53;;;2.37;;
9675;SDS011;4876;42.656;23.292;2023-03-01T14:40:22;4.40;;;3.23;;
9675;SDS011;4876;42.656;23.292;2023-03-01T14:42:51;4.67;;;3.33;;
9675;SDS011;4876;42.656;23.292;2023-03-01T14:45:19;4.73;;;3.03;;
9675;SDS011;4876;42.656;23.292;2023-03-01T14:47:46;4.90;;;2.73;;
9675;SDS011;4876;42.656;23.292;2023-03-01T14:50:20;3.63;;;2.43;;
9675;SDS011;4876;42.656;23.292;2023-03-01T14:52:54;5.00;;;3.03;;
9675;SDS011;4876;42.656;23.292;2023-03-01T14:55:27;3.83;;;3.20;;
9675;SDS011;4876;42.656;23.292;2023-03-01T14:57:57;3.97;;;2.73;;
9675;SDS011;4876;42.656;23.292;2023-03-01T15:00:26;6.23;;;3.27;;
9675;SDS011;4876;42.656;23.292;2023-03-01T15:02:55;4.97;;;3.00;;
9675;SDS011;4876;42.656;23.292;2023-03-01T15:05:30;3.80;;;2.83;;
9675;SDS011;4876;42.656;23.292;2023-03-01T15:08:00;4.77;;;2.77;;
9675;SDS011;4876;42.656;23.292;2023-03-01T15:10:32;3.60;;;2.57;;
9675;SDS011;4876;42.656;23.292;2023-03-01T15:13:09;3.57;;;2.93;;
9675;SDS011;4876;42.656;23.292;2023-03-01T15:15:38;4.07;;;2.83;;
9675;SDS011;4876;42.656;23.292;2023-03-01T15:18:17;4.10;;;2.60;;
9675;SDS011;4876;42.656;23.292;2023-03-01T15:20:45;3.23;;;2.50;;
9675;SDS011;4876;42.656;23.292;2023-03-01T15:23:23;3.60;;;3.00;;
9675;SDS011;4876;42.656;23.292;2023-03-01T15:25:53;3.33;;;2.77;;
9675;SDS011;4876;42.656;23.292;2023-03-01T15:28:23;5.47;;;3.40;;
9675;SDS011;4876;42.656;23.292;2023-03-01T15:30:52;5.30;;;4.27;;
9675;SDS011;4876;42.656;23.292;2023-03-01T15:33:28;6.90;;;4.77;;
9675;SDS011;4876;42.656;23.292;2023-03-01T15:36:00;4.83;;;3.60;;
9675;SDS011;4876;42.656;23.292;2023-03-01T15:38:29;4.37;;;3.93;;
9675;SDS011;4876;42.656;23.292;2023-03-01T15:41:05;6.37;;;3.93;;
9675;SDS011;4876;42.656;23.292;2023-03-01T15:43:47;4.37;;;2.83;;
9675;SDS011;4876;42.656;23.292;2023-03-01T15:46:19;10.93;;;3.10;;
9675;SDS011;4876;42.656;23.292;2023-03-01T15:48:50;6.83;;;3.83;;
9675;SDS011;4876;42.656;23.292;2023-03-01T15:51:21;6.67;;;4.60;;
9675;SDS011;4876;42.656;23.292;2023-03-01T15:53:53;5.60;;;4.23;;
9675;SDS011;4876;42.656;23.292;2023-03-01T15:56:22;5.00;;;3.77;;